sensor_id;sensor_type;location;lat;lon;timestamp;temperature;humidity
8008;DHT22;4049;49.468;11.200;2023-04-25T00:01:39;8.40;99.90
8008;DHT22;4049;49.468;11.200;2023-04-25T00:04:07;8.40;99.90
8008;DHT22;4049;49.468;11.200;2023-04-25T00:06:35;8.30;99.90
8008;DHT22;4049;49.468;11.200;2023-04-25T00:09:02;8.40;99.90
8008;DHT22;4049;49.468;11.200;2023-04-25T00:11:32;8.40;99.90
8008;DHT22;4049;49.468;11.200;2023-04-25T00:13:59;8.40;99.90
8008;DHT22;4049;49.468;11.200;2023-04-25T00:16:27;8.30;99.90
8008;DHT22;4049;49.468;11.200;2023-04-25T00:18:54;8.40;99.90
8008;DHT22;4049;49.468;11.200;2023-04-25T00:21:21;8.30;99.90
8008;DHT22;4049;49.468;11.200;2023-04-25T00:23:52;8.30;99.90
8008;DHT22;4049;49.468;11.200;2023-04-25T00:26:19;8.40;99.90
8008;DHT22;4049;49.468;11.200;2023-04-25T00:28:47;8.40;99.90
8008;DHT22;4049;49.468;11.200;2023-04-25T00:31:14;8.40;99.90
8008;DHT22;4049;49.468;11.200;2023-04-25T00:33:41;8.40;99.90
8008;DHT22;4049;49.468;11.200;2023-04-25T00:36:08;8.40;99.90
8008;DHT22;4049;49.468;11.200;2023-04-25T00:38:35;8.40;99.90
8008;DHT22;4049;49.468;11.200;2023-04-25T00:41:06;8.40;99.90
8008;DHT22;4049;49.468;11.200;2023-04-25T00:43:32;8.40;99.90
8008;DHT22;4049;49.468;11.200;2023-04-25T00:46:00;8.50;99.90
8008;DHT22;4049;49.468;11.200;2023-04-25T00:48:27;8.50;99.90
8008;DHT22;4049;49.468;11.200;2023-04-25T00:50:56;8.40;99.90
8008;DHT22;4049;49.468;11.200;2023-04-25T00:53:25;8.50;99.90
8008;DHT22;4049;49.468;11.200;2023-04-25T00:55:52;8.40;99.90
8008;DHT22;4049;49.468;11.200;2023-04-25T00:58:21;8.40;99.90
8008;DHT22;4049;49.468;11.200;2023-04-25T01:00:50;8.40;99.90
8008;DHT22;4049;49.468;11.200;2023-04-25T01:03:18;8.40;99.90
8008;DHT22;4049;49.468;11.200;2023-04-25T01:05:46;8.30;99.90
8008;DHT22;4049;49.468;11.200;2023-04-25T01:08:13;8.30;99.90
8008;DHT22;4049;49.468;11.200;2023-04-25T01:10:40;8.30;99.90
8008;DHT22;4049;49.468;11.200;2023-04-25T01:13:07;8.20;99.90
8008;DHT22;4049;49.468;11.200;2023-04-25T01:15:36;8.20;99.90
8008;DHT22;4049;49.468;11.200;2023-04-25T01:18:05;8.10;99.90
8008;DHT22;4049;49.468;11.200;2023-04-25T01:20:33;8.10;99.90
8008;DHT22;4049;49.468;11.200;2023-04-25T01:23:02;8.10;99.90
8008;DHT22;4049;49.468;11.200;2023-04-25T01:25:29;8.10;99.90
8008;DHT22;4049;49.468;11.200;2023-04-25T01:27:57;8.10;99.90
8008;DHT22;4049;49.468;11.200;2023-04-25T01:30:25;8.00;99.90
8008;DHT22;4049;49.468;11.200;2023-04-25T01:32:54;8.00;99.90
8008;DHT22;4049;49.468;11.200;2023-04-25T01:35:22;8.00;99.90
8008;DHT22;4049;49.468;11.200;2023-04-25T01:37:49;7.90;99.90
8008;DHT22;4049;49.468;11.200;2023-04-25T01:40:19;7.80;99.90
8008;DHT22;4049;49.468;11.200;2023-04-25T01:42:47;7.90;99.90
8008;DHT22;4049;49.468;11.200;2023-04-25T01:45:13;7.90;99.90
8008;DHT22;4049;49.468;11.200;2023-04-25T01:47:40;7.90;99.90
8008;DHT22;4049;49.468;11.200;2023-04-25T01:50:10;7.90;99.90
8008;DHT22;4049;49.468;11.200;2023-04-25T01:52:37;7.90;99.90
8008;DHT22;4049;49.468;11.200;2023-04-25T01:55:05;7.90;99.90
8008;DHT22;4049;49.468;11.200;2023-04-25T01:57:33;7.90;99.90
8008;DHT22;4049;49.468;11.200;2023-04-25T02:00:02;7.80;99.90
8008;DHT22;4049;49.468;11.200;2023-04-25T02:02:30;7.80;99.90
8008;DHT22;4049;49.468;11.200;2023-04-25T02:04:56;7.80;99.90
8008;DHT22;4049;49.468;11.200;2023-04-25T02:07:23;7.80;99.90
8008;DHT22;4049;49.468;11.200;2023-04-25T02:09:50;7.80;99.90
8008;DHT22;4049;49.468;11.200;2023-04-25T02:12:17;7.90;99.90
8008;DHT22;4049;49.468;11.200;2023-04-25T02:14:45;7.80;99.90
8008;DHT22;4049;49.468;11.200;2023-04-25T02:17:12;7.90;99.90
8008;DHT22;4049;49.468;11.200;2023-04-25T02:19:39;7.80;99.90
8008;DHT22;4049;49.468;11.200;2023-04-25T02:22:06;7.80;99.90
8008;DHT22;4049;49.468;11.200;2023-04-25T02:24:32;7.80;99.90
8008;DHT22;4049;49.468;11.200;2023-04-25T02:27:00;7.80;99.90
8008;DHT22;4049;49.468;11.200;2023-04-25T02:29:27;7.80;99.90
8008;DHT22;4049;49.468;11.200;2023-04-25T02:31:55;7.90;99.90
8008;DHT22;4049;49.468;11.200;2023-04-25T02:34:22;7.80;99.90
8008;DHT22;4049;49.468;11.200;2023-04-25T02:36:51;7.90;99.90
8008;DHT22;4049;49.468;11.200;2023-04-25T02:39:18;7.80;99.90
8008;DHT22;4049;49.468;11.200;2023-04-25T02:41:47;7.80;99.90
8008;DHT22;4049;49.468;11.200;2023-04-25T02:44:14;7.80;99.90
8008;DHT22;4049;49.468;11.200;2023-04-25T02:46:41;7.70;99.90
8008;DHT22;4049;49.468;11.200;2023-04-25T02:49:09;7.70;99.90
8008;DHT22;4049;49.468;11.200;2023-04-25T02:51:36;7.70;99.90
8008;DHT22;4049;49.468;11.200;2023-04-25T02:54:03;7.60;99.90
8008;DHT22;4049;49.468;11.200;2023-04-25T02:56:29;7.50;99.90
8008;DHT22;4049;49.468;11.200;2023-04-25T02:58:56;7.50;99.90
8008;DHT22;4049;49.468;11.200;2023-04-25T03:01:23;7.50;99.90
8008;DHT22;4049;49.468;11.200;2023-04-25T03:03:50;7.50;99.90
8008;DHT22;4049;49.468;11.200;2023-04-25T03:06:18;7.50;99.90
8008;DHT22;4049;49.468;11.200;2023-04-25T03:08:45;7.50;99.90
8008;DHT22;4049;49.468;11.200;2023-04-25T03:11:14;7.50;99.90
8008;DHT22;4049;49.468;11.200;2023-04-25T03:13:40;7.50;99.90
8008;DHT22;4049;49.468;11.200;2023-04-25T03:16:07;7.50;99.90
8008;DHT22;4049;49.468;11.200;2023-04-25T03:18:34;7.50;99.90
8008;DHT22;4049;49.468;11.200;2023-04-25T03:21:01;7.40;99.90
8008;DHT22;4049;49.468;11.200;2023-04-25T03:23:29;7.40;99.90
8008;DHT22;4049;49.468;11.200;2023-04-25T03:25:56;7.50;99.90
8008;DHT22;4049;49.468;11.200;2023-04-25T03:28:23;7.50;99.90
8008;DHT22;4049;49.468;11.200;2023-04-25T03:30:49;7.50;99.90
8008;DHT22;4049;49.468;11.200;2023-04-25T03:33:16;7.50;99.90
8008;DHT22;4049;49.468;11.200;2023-04-25T03:35:43;7.50;99.90
8008;DHT22;4049;49.468;11.200;2023-04-25T03:38:10;7.40;99.90
8008;DHT22;4049;49.468;11.200;2023-04-25T03:40:38;7.40;99.90
8008;DHT22;4049;49.468;11.200;2023-04-25T03:43:05;7.40;99.90
8008;DHT22;4049;49.468;11.200;2023-04-25T03:45:32;7.40;99.90
8008;DHT22;4049;49.468;11.200;2023-04-25T03:47:59;7.30;99.90
8008;DHT22;4049;49.468;11.200;2023-04-25T03:50:26;7.40;99.90
8008;DHT22;4049;49.468;11.200;2023-04-25T03:52:52;7.30;99.90
8008;DHT22;4049;49.468;11.200;2023-04-25T03:55:21;7.30;99.90
8008;DHT22;4049;49.468;11.200;2023-04-25T03:57:49;7.30;99.90
8008;DHT22;4049;49.468;11.200;2023-04-25T04:00:16;7.30;99.90
8008;DHT22;4049;49.468;11.200;2023-04-25T04:02:43;7.30;99.90
8008;DHT22;4049;49.468;11.200;2023-04-25T04:05:09;7.20;99.90
8008;DHT22;4049;49.468;11.200;2023-04-25T04:07:36;7.30;99.90
8008;DHT22;4049;49.468;11.200;2023-04-25T04:10:06;7.30;99.90
8008;DHT22;4049;49.468;11.200;2023-04-25T04:12:33;7.30;99.90
8008;DHT22;4049;49.468;11.200;2023-04-25T04:15:01;7.30;99.90
8008;DHT22;4049;49.468;11.200;2023-04-25T04:17:29;7.30;99.90
8008;DHT22;4049;49.468;11.200;2023-04-25T04:19:56;7.40;99.90
8008;DHT22;4049;49.468;11.200;2023-04-25T04:22:23;7.40;99.90
8008;DHT22;4049;49.468;11.200;2023-04-25T04:24:50;7.40;99.90
8008;DHT22;4049;49.468;11.200;2023-04-25T04:27:18;7.50;99.90
8008;DHT22;4049;49.468;11.200;2023-04-25T04:29:46;7.40;99.90
8008;DHT22;4049;49.468;11.200;2023-04-25T04:32:14;7.50;99.90
8008;DHT22;4049;49.468;11.200;2023-04-25T04:34:41;7.50;99.90
8008;DHT22;4049;49.468;11.200;2023-04-25T04:37:08;7.50;99.90
8008;DHT22;4049;49.468;11.200;2023-04-25T04:39:35;7.50;99.90
8008;DHT22;4049;49.468;11.200;2023-04-25T04:42:02;7.50;99.90
8008;DHT22;4049;49.468;11.200;2023-04-25T04:44:31;7.50;99.90
8008;DHT22;4049;49.468;11.200;2023-04-25T04:46:59;7.50;99.90
8008;DHT22;4049;49.468;11.200;2023-04-25T04:49:28;7.60;99.90
8008;DHT22;4049;49.468;11.200;2023-04-25T04:51:55;7.50;99.90
8008;DHT22;4049;49.468;11.200;2023-04-25T04:54:22;7.50;99.90
8008;DHT22;4049;49.468;11.200;2023-04-25T04:56:49;7.50;99.90
8008;DHT22;4049;49.468;11.200;2023-04-25T04:59:16;7.50;99.90
8008;DHT22;4049;49.468;11.200;2023-04-25T05:01:43;7.50;99.90
8008;DHT22;4049;49.468;11.200;2023-04-25T05:04:11;7.50;99.90
8008;DHT22;4049;49.468;11.200;2023-04-25T05:06:39;7.50;99.90
8008;DHT22;4049;49.468;11.200;2023-04-25T05:09:06;7.60;99.90
8008;DHT22;4049;49.468;11.200;2023-04-25T05:11:33;7.50;99.90
8008;DHT22;4049;49.468;11.200;2023-04-25T05:14:00;7.50;99.90
8008;DHT22;4049;49.468;11.200;2023-04-25T05:16:27;7.50;99.90
8008;DHT22;4049;49.468;11.200;2023-04-25T05:18:53;7.60;99.90
8008;DHT22;4049;49.468;11.200;2023-04-25T05:21:20;7.50;99.90
8008;DHT22;4049;49.468;11.200;2023-04-25T05:23:49;7.60;99.90
8008;DHT22;4049;49.468;11.200;2023-04-25T05:26:16;7.60;99.90
8008;DHT22;4049;49.468;11.200;2023-04-25T05:28:42;7.60;99.90
8008;DHT22;4049;49.468;11.200;2023-04-25T05:31:10;7.60;99.90
8008;DHT22;4049;49.468;11.200;2023-04-25T05:33:37;7.60;99.90
8008;DHT22;4049;49.468;11.200;2023-04-25T05:36:04;7.60;99.90
8008;DHT22;4049;49.468;11.200;2023-04-25T05:38:32;7.70;99.90
8008;DHT22;4049;49.468;11.200;2023-04-25T05:41:00;7.70;99.90
8008;DHT22;4049;49.468;11.200;2023-04-25T05:43:27;7.70;99.90
8008;DHT22;4049;49.468;11.200;2023-04-25T05:45:54;7.70;99.90
8008;DHT22;4049;49.468;11.200;2023-04-25T05:48:21;7.70;99.90
8008;DHT22;4049;49.468;11.200;2023-04-25T05:50:47;7.80;99.90
8008;DHT22;4049;49.468;11.200;2023-04-25T05:53:14;7.80;99.90
8008;DHT22;4049;49.468;11.200;2023-04-25T05:55:41;7.80;99.90
8008;DHT22;4049;49.468;11.200;2023-04-25T05:58:09;7.80;99.90
8008;DHT22;4049;49.468;11.200;2023-04-25T06:00:36;7.90;99.90
8008;DHT22;4049;49.468;11.200;2023-04-25T06:03:03;7.80;99.90
8008;DHT22;4049;49.468;11.200;2023-04-25T06:05:30;7.80;99.90
8008;DHT22;4049;49.468;11.200;2023-04-25T06:07:57;7.90;99.90
8008;DHT22;4049;49.468;11.200;2023-04-25T06:10:24;7.90;99.90
8008;DHT22;4049;49.468;11.200;2023-04-25T06:12:51;7.90;99.90
8008;DHT22;4049;49.468;11.200;2023-04-25T06:15:19;7.90;99.90
8008;DHT22;4049;49.468;11.200;2023-04-25T06:17:46;7.90;99.90
8008;DHT22;4049;49.468;11.200;2023-04-25T06:20:14;7.90;99.90
8008;DHT22;4049;49.468;11.200;2023-04-25T06:22:41;7.90;99.90
8008;DHT22;4049;49.468;11.200;2023-04-25T06:25:08;7.90;99.90
8008;DHT22;4049;49.468;11.200;2023-04-25T06:27:35;7.90;99.90
8008;DHT22;4049;49.468;11.200;2023-04-25T06:30:02;7.90;99.90
8008;DHT22;4049;49.468;11.200;2023-04-25T06:32:31;7.90;99.90
8008;DHT22;4049;49.468;11.200;2023-04-25T06:34:59;7.90;99.90
8008;DHT22;4049;49.468;11.200;2023-04-25T06:37:26;7.90;99.90
8008;DHT22;4049;49.468;11.200;2023-04-25T06:39:53;7.90;99.90
8008;DHT22;4049;49.468;11.200;2023-04-25T06:42:20;8.00;99.90
8008;DHT22;4049;49.468;11.200;2023-04-25T06:44:47;8.00;99.90
8008;DHT22;4049;49.468;11.200;2023-04-25T06:47:14;8.00;99.90
8008;DHT22;4049;49.468;11.200;2023-04-25T06:49:42;8.10;99.90
8008;DHT22;4049;49.468;11.200;2023-04-25T06:52:08;8.20;99.90
8008;DHT22;4049;49.468;11.200;2023-04-25T06:54:36;8.20;99.90
8008;DHT22;4049;49.468;11.200;2023-04-25T06:57:03;8.20;99.90
8008;DHT22;4049;49.468;11.200;2023-04-25T06:59:29;8.20;99.90
8008;DHT22;4049;49.468;11.200;2023-04-25T07:01:56;8.20;99.90
8008;DHT22;4049;49.468;11.200;2023-04-25T07:04:23;8.20;99.90
8008;DHT22;4049;49.468;11.200;2023-04-25T07:06:51;8.20;99.90
8008;DHT22;4049;49.468;11.200;2023-04-25T07:09:18;8.30;99.90
8008;DHT22;4049;49.468;11.200;2023-04-25T07:11:45;8.30;99.90
8008;DHT22;4049;49.468;11.200;2023-04-25T07:14:12;8.40;99.90
8008;DHT22;4049;49.468;11.200;2023-04-25T07:16:39;8.50;99.90
8008;DHT22;4049;49.468;11.200;2023-04-25T07:19:06;8.50;99.90
8008;DHT22;4049;49.468;11.200;2023-04-25T07:21:33;8.60;99.90
8008;DHT22;4049;49.468;11.200;2023-04-25T07:24:03;8.70;99.90
8008;DHT22;4049;49.468;11.200;2023-04-25T07:26:30;8.80;99.90
8008;DHT22;4049;49.468;11.200;2023-04-25T07:28:57;8.90;99.90
8008;DHT22;4049;49.468;11.200;2023-04-25T07:31:24;8.90;99.90
8008;DHT22;4049;49.468;11.200;2023-04-25T07:33:51;9.00;99.90
8008;DHT22;4049;49.468;11.200;2023-04-25T07:36:18;9.00;99.90
8008;DHT22;4049;49.468;11.200;2023-04-25T07:38:44;8.90;99.90
8008;DHT22;4049;49.468;11.200;2023-04-25T07:41:12;8.90;99.90
8008;DHT22;4049;49.468;11.200;2023-04-25T07:43:39;8.80;99.90
8008;DHT22;4049;49.468;11.200;2023-04-25T07:46:06;8.70;99.90
8008;DHT22;4049;49.468;11.200;2023-04-25T07:48:33;8.60;99.90
8008;DHT22;4049;49.468;11.200;2023-04-25T07:51:00;8.60;99.90
8008;DHT22;4049;49.468;11.200;2023-04-25T07:53:26;8.40;99.90
8008;DHT22;4049;49.468;11.200;2023-04-25T07:55:53;8.30;99.90
8008;DHT22;4049;49.468;11.200;2023-04-25T07:58:22;8.20;99.90
8008;DHT22;4049;49.468;11.200;2023-04-25T08:00:49;8.00;99.90
8008;DHT22;4049;49.468;11.200;2023-04-25T08:03:15;8.00;99.90
8008;DHT22;4049;49.468;11.200;2023-04-25T08:05:42;8.00;99.90
8008;DHT22;4049;49.468;11.200;2023-04-25T08:08:09;8.00;99.90
8008;DHT22;4049;49.468;11.200;2023-04-25T08:10:36;7.90;99.90
8008;DHT22;4049;49.468;11.200;2023-04-25T08:13:03;8.00;99.90
8008;DHT22;4049;49.468;11.200;2023-04-25T08:15:31;8.00;99.90
8008;DHT22;4049;49.468;11.200;2023-04-25T08:17:58;8.00;99.90
8008;DHT22;4049;49.468;11.200;2023-04-25T08:20:25;8.10;99.90
8008;DHT22;4049;49.468;11.200;2023-04-25T08:22:51;8.10;99.90
8008;DHT22;4049;49.468;11.200;2023-04-25T08:25:18;8.20;99.90
8008;DHT22;4049;49.468;11.200;2023-04-25T08:27:45;8.20;99.90
8008;DHT22;4049;49.468;11.200;2023-04-25T08:30:12;8.20;99.90
8008;DHT22;4049;49.468;11.200;2023-04-25T08:32:41;8.20;99.90
8008;DHT22;4049;49.468;11.200;2023-04-25T08:35:08;8.30;99.90
8008;DHT22;4049;49.468;11.200;2023-04-25T08:37:35;8.40;99.90
8008;DHT22;4049;49.468;11.200;2023-04-25T08:40:04;8.40;99.90
8008;DHT22;4049;49.468;11.200;2023-04-25T08:42:35;8.40;99.90
8008;DHT22;4049;49.468;11.200;2023-04-25T08:45:04;8.50;99.90
8008;DHT22;4049;49.468;11.200;2023-04-25T08:47:33;8.60;99.90
8008;DHT22;4049;49.468;11.200;2023-04-25T08:50:02;8.60;99.90
8008;DHT22;4049;49.468;11.200;2023-04-25T08:52:35;8.70;99.90
8008;DHT22;4049;49.468;11.200;2023-04-25T08:55:03;8.70;99.90
8008;DHT22;4049;49.468;11.200;2023-04-25T08:57:31;8.80;99.90
8008;DHT22;4049;49.468;11.200;2023-04-25T09:00:00;8.90;99.90
8008;DHT22;4049;49.468;11.200;2023-04-25T09:02:29;9.00;99.90
8008;DHT22;4049;49.468;11.200;2023-04-25T09:04:56;9.20;99.90
8008;DHT22;4049;49.468;11.200;2023-04-25T09:07:25;9.20;99.90
8008;DHT22;4049;49.468;11.200;2023-04-25T09:09:51;9.30;99.90
8008;DHT22;4049;49.468;11.200;2023-04-25T09:12:19;9.40;99.90
8008;DHT22;4049;49.468;11.200;2023-04-25T09:15:01;9.30;99.90
8008;DHT22;4049;49.468;11.200;2023-04-25T09:17:29;9.30;99.90
8008;DHT22;4049;49.468;11.200;2023-04-25T09:20:05;9.40;99.90
8008;DHT22;4049;49.468;11.200;2023-04-25T09:22:34;9.40;99.90
8008;DHT22;4049;49.468;11.200;2023-04-25T09:25:03;9.40;99.90
8008;DHT22;4049;49.468;11.200;2023-04-25T09:27:32;9.40;99.90
8008;DHT22;4049;49.468;11.200;2023-04-25T09:29:59;9.50;99.90
8008;DHT22;4049;49.468;11.200;2023-04-25T09:32:26;9.50;99.90
8008;DHT22;4049;49.468;11.200;2023-04-25T09:34:57;9.60;99.90
8008;DHT22;4049;49.468;11.200;2023-04-25T09:37:25;9.60;99.90
8008;DHT22;4049;49.468;11.200;2023-04-25T09:39:55;9.70;99.90
8008;DHT22;4049;49.468;11.200;2023-04-25T09:42:25;9.70;99.90
8008;DHT22;4049;49.468;11.200;2023-04-25T09:44:53;9.80;99.90
8008;DHT22;4049;49.468;11.200;2023-04-25T09:47:22;9.90;99.90
8008;DHT22;4049;49.468;11.200;2023-04-25T09:49:50;10.10;99.90
8008;DHT22;4049;49.468;11.200;2023-04-25T09:52:19;10.20;99.90
8008;DHT22;4049;49.468;11.200;2023-04-25T09:54:47;10.30;99.90
8008;DHT22;4049;49.468;11.200;2023-04-25T09:57:17;10.40;99.90
8008;DHT22;4049;49.468;11.200;2023-04-25T09:59:45;10.50;99.90
8008;DHT22;4049;49.468;11.200;2023-04-25T10:02:13;10.60;99.90
8008;DHT22;4049;49.468;11.200;2023-04-25T10:04:41;10.70;99.90
8008;DHT22;4049;49.468;11.200;2023-04-25T10:07:08;10.90;99.90
8008;DHT22;4049;49.468;11.200;2023-04-25T10:09:37;11.00;99.90
8008;DHT22;4049;49.468;11.200;2023-04-25T10:12:05;11.00;99.90
8008;DHT22;4049;49.468;11.200;2023-04-25T10:14:34;11.10;99.90
8008;DHT22;4049;49.468;11.200;2023-04-25T10:17:02;11.10;99.90
8008;DHT22;4049;49.468;11.200;2023-04-25T10:19:29;11.20;99.90
8008;DHT22;4049;49.468;11.200;2023-04-25T10:22:02;11.40;99.90
8008;DHT22;4049;49.468;11.200;2023-04-25T10:24:30;11.40;99.90
8008;DHT22;4049;49.468;11.200;2023-04-25T10:26:57;11.40;99.90
8008;DHT22;4049;49.468;11.200;2023-04-25T10:29:25;11.40;99.90
8008;DHT22;4049;49.468;11.200;2023-04-25T10:31:54;11.40;99.90
8008;DHT22;4049;49.468;11.200;2023-04-25T10:34:24;11.40;99.90
8008;DHT22;4049;49.468;11.200;2023-04-25T10:36:52;11.50;99.90
8008;DHT22;4049;49.468;11.200;2023-04-25T10:39:24;11.70;99.90
8008;DHT22;4049;49.468;11.200;2023-04-25T10:41:55;11.80;99.90
8008;DHT22;4049;49.468;11.200;2023-04-25T10:44:22;11.90;99.90
8008;DHT22;4049;49.468;11.200;2023-04-25T10:46:49;11.90;99.90
8008;DHT22;4049;49.468;11.200;2023-04-25T10:49:32;12.00;99.90
8008;DHT22;4049;49.468;11.200;2023-04-25T10:52:13;12.10;99.90
8008;DHT22;4049;49.468;11.200;2023-04-25T10:54:41;12.20;99.90
8008;DHT22;4049;49.468;11.200;2023-04-25T10:57:35;12.20;99.90
8008;DHT22;4049;49.468;11.200;2023-04-25T11:00:08;12.20;99.90
8008;DHT22;4049;49.468;11.200;2023-04-25T11:02:43;12.20;99.90
8008;DHT22;4049;49.468;11.200;2023-04-25T11:05:20;12.40;99.90
8008;DHT22;4049;49.468;11.200;2023-04-25T11:07:50;12.50;99.90
8008;DHT22;4049;49.468;11.200;2023-04-25T11:10:18;12.70;99.90
8008;DHT22;4049;49.468;11.200;2023-04-25T11:12:45;12.90;99.90
8008;DHT22;4049;49.468;11.200;2023-04-25T11:15:13;13.00;99.90
8008;DHT22;4049;49.468;11.200;2023-04-25T11:17:40;13.20;99.90
8008;DHT22;4049;49.468;11.200;2023-04-25T11:20:08;13.20;96.70
8008;DHT22;4049;49.468;11.200;2023-04-25T11:22:39;13.10;95.60
8008;DHT22;4049;49.468;11.200;2023-04-25T11:25:08;13.00;93.40
8008;DHT22;4049;49.468;11.200;2023-04-25T11:27:38;12.90;95.10
8008;DHT22;4049;49.468;11.200;2023-04-25T11:30:12;12.80;97.30
8008;DHT22;4049;49.468;11.200;2023-04-25T11:32:40;12.70;94.80
8008;DHT22;4049;49.468;11.200;2023-04-25T11:35:08;12.80;99.90
8008;DHT22;4049;49.468;11.200;2023-04-25T11:37:35;12.70;99.90
8008;DHT22;4049;49.468;11.200;2023-04-25T11:40:05;12.60;99.90
8008;DHT22;4049;49.468;11.200;2023-04-25T11:42:36;12.50;99.90
8008;DHT22;4049;49.468;11.200;2023-04-25T11:45:04;12.40;99.90
8008;DHT22;4049;49.468;11.200;2023-04-25T11:47:32;12.30;99.90
8008;DHT22;4049;49.468;11.200;2023-04-25T11:49:59;12.10;99.90
8008;DHT22;4049;49.468;11.200;2023-04-25T11:52:36;12.10;99.90
8008;DHT22;4049;49.468;11.200;2023-04-25T11:55:06;12.00;99.90
8008;DHT22;4049;49.468;11.200;2023-04-25T11:57:33;12.00;99.90
8008;DHT22;4049;49.468;11.200;2023-04-25T12:00:09;12.00;99.90
8008;DHT22;4049;49.468;11.200;2023-04-25T12:02:37;12.00;99.90
8008;DHT22;4049;49.468;11.200;2023-04-25T12:05:06;12.10;99.90
8008;DHT22;4049;49.468;11.200;2023-04-25T12:07:37;12.10;99.90
8008;DHT22;4049;49.468;11.200;2023-04-25T12:10:07;12.10;99.90
8008;DHT22;4049;49.468;11.200;2023-04-25T12:12:34;12.10;99.90
8008;DHT22;4049;49.468;11.200;2023-04-25T12:15:09;12.20;99.90
8008;DHT22;4049;49.468;11.200;2023-04-25T12:17:36;12.20;99.90
8008;DHT22;4049;49.468;11.200;2023-04-25T12:20:07;12.30;99.90
8008;DHT22;4049;49.468;11.200;2023-04-25T12:22:34;12.30;99.90
8008;DHT22;4049;49.468;11.200;2023-04-25T12:25:01;12.20;97.20
8008;DHT22;4049;49.468;11.200;2023-04-25T12:27:31;12.10;99.90
8008;DHT22;4049;49.468;11.200;2023-04-25T12:29:59;12.10;99.90
8008;DHT22;4049;49.468;11.200;2023-04-25T12:32:27;12.10;99.50
8008;DHT22;4049;49.468;11.200;2023-04-25T12:34:54;12.10;99.90
8008;DHT22;4049;49.468;11.200;2023-04-25T12:37:21;12.30;97.60
8008;DHT22;4049;49.468;11.200;2023-04-25T12:39:48;12.20;95.00
8008;DHT22;4049;49.468;11.200;2023-04-25T12:42:14;12.30;99.50
8008;DHT22;4049;49.468;11.200;2023-04-25T12:44:42;12.30;98.40
8008;DHT22;4049;49.468;11.200;2023-04-25T12:47:09;12.40;98.90
8008;DHT22;4049;49.468;11.200;2023-04-25T12:49:36;12.50;98.20
8008;DHT22;4049;49.468;11.200;2023-04-25T12:52:03;12.40;93.40
8008;DHT22;4049;49.468;11.200;2023-04-25T12:54:30;12.40;95.60
8008;DHT22;4049;49.468;11.200;2023-04-25T12:56:57;12.30;95.90
8008;DHT22;4049;49.468;11.200;2023-04-25T12:59:24;12.30;95.00
8008;DHT22;4049;49.468;11.200;2023-04-25T13:01:52;12.20;95.70
8008;DHT22;4049;49.468;11.200;2023-04-25T13:04:19;12.10;97.00
8008;DHT22;4049;49.468;11.200;2023-04-25T13:06:46;12.10;96.80
8008;DHT22;4049;49.468;11.200;2023-04-25T13:09:13;12.00;97.80
8008;DHT22;4049;49.468;11.200;2023-04-25T13:11:41;12.00;97.30
8008;DHT22;4049;49.468;11.200;2023-04-25T13:14:07;12.00;98.30
8008;DHT22;4049;49.468;11.200;2023-04-25T13:16:34;12.00;98.30
8008;DHT22;4049;49.468;11.200;2023-04-25T13:19:03;12.10;99.50
8008;DHT22;4049;49.468;11.200;2023-04-25T13:21:31;12.20;99.90
8008;DHT22;4049;49.468;11.200;2023-04-25T13:23:58;12.40;99.90
8008;DHT22;4049;49.468;11.200;2023-04-25T13:26:25;12.70;99.90
8008;DHT22;4049;49.468;11.200;2023-04-25T13:28:52;12.70;99.50
8008;DHT22;4049;49.468;11.200;2023-04-25T13:31:19;12.70;97.70
8008;DHT22;4049;49.468;11.200;2023-04-25T13:33:46;12.60;97.70
8008;DHT22;4049;49.468;11.200;2023-04-25T13:36:14;12.50;97.80
8008;DHT22;4049;49.468;11.200;2023-04-25T13:38:41;12.40;97.90
8008;DHT22;4049;49.468;11.200;2023-04-25T13:41:10;12.30;97.00
8008;DHT22;4049;49.468;11.200;2023-04-25T13:43:41;12.20;98.20
8008;DHT22;4049;49.468;11.200;2023-04-25T13:46:08;12.20;97.30
8008;DHT22;4049;49.468;11.200;2023-04-25T13:48:35;12.00;97.10
8008;DHT22;4049;49.468;11.200;2023-04-25T13:51:02;12.00;97.90
8008;DHT22;4049;49.468;11.200;2023-04-25T13:53:30;11.90;97.50
8008;DHT22;4049;49.468;11.200;2023-04-25T13:55:57;11.90;96.90
8008;DHT22;4049;49.468;11.200;2023-04-25T13:58:24;11.80;97.30
8008;DHT22;4049;49.468;11.200;2023-04-25T14:00:51;11.80;97.50
8008;DHT22;4049;49.468;11.200;2023-04-25T14:03:19;11.70;97.90
8008;DHT22;4049;49.468;11.200;2023-04-25T14:05:45;11.70;97.90
8008;DHT22;4049;49.468;11.200;2023-04-25T14:08:12;11.60;98.40
8008;DHT22;4049;49.468;11.200;2023-04-25T14:10:40;11.60;99.20
8008;DHT22;4049;49.468;11.200;2023-04-25T14:13:07;11.50;99.10
8008;DHT22;4049;49.468;11.200;2023-04-25T14:15:35;11.50;99.70
8008;DHT22;4049;49.468;11.200;2023-04-25T14:18:02;11.50;99.70
8008;DHT22;4049;49.468;11.200;2023-04-25T14:20:29;11.50;99.80
8008;DHT22;4049;49.468;11.200;2023-04-25T14:22:56;11.50;99.90
8008;DHT22;4049;49.468;11.200;2023-04-25T14:25:23;11.50;99.10
8008;DHT22;4049;49.468;11.200;2023-04-25T14:27:52;11.50;98.40
8008;DHT22;4049;49.468;11.200;2023-04-25T14:30:20;11.50;98.90
8008;DHT22;4049;49.468;11.200;2023-04-25T14:32:48;11.40;98.40
8008;DHT22;4049;49.468;11.200;2023-04-25T14:35:15;11.40;99.20
8008;DHT22;4049;49.468;11.200;2023-04-25T14:37:42;11.30;98.50
8008;DHT22;4049;49.468;11.200;2023-04-25T14:40:10;11.20;98.80
8008;DHT22;4049;49.468;11.200;2023-04-25T14:42:38;11.20;98.60
8008;DHT22;4049;49.468;11.200;2023-04-25T14:45:08;11.10;99.30
8008;DHT22;4049;49.468;11.200;2023-04-25T14:47:35;11.10;99.60
8008;DHT22;4049;49.468;11.200;2023-04-25T14:50:03;11.00;99.90
8008;DHT22;4049;49.468;11.200;2023-04-25T14:52:30;11.10;99.90
8008;DHT22;4049;49.468;11.200;2023-04-25T14:54:57;11.00;99.90
8008;DHT22;4049;49.468;11.200;2023-04-25T14:57:25;11.00;99.90
8008;DHT22;4049;49.468;11.200;2023-04-25T14:59:52;11.00;99.90
8008;DHT22;4049;49.468;11.200;2023-04-25T15:02:20;11.00;99.90
8008;DHT22;4049;49.468;11.200;2023-04-25T15:04:47;10.90;99.90
8008;DHT22;4049;49.468;11.200;2023-04-25T15:07:14;10.90;99.90
8008;DHT22;4049;49.468;11.200;2023-04-25T15:09:40;10.90;99.90
8008;DHT22;4049;49.468;11.200;2023-04-25T15:12:07;10.90;99.90
8008;DHT22;4049;49.468;11.200;2023-04-25T15:14:34;10.90;99.90
8008;DHT22;4049;49.468;11.200;2023-04-25T15:17:01;10.90;99.90
8008;DHT22;4049;49.468;11.200;2023-04-25T15:19:29;10.90;99.90
8008;DHT22;4049;49.468;11.200;2023-04-25T15:21:56;10.90;99.90
8008;DHT22;4049;49.468;11.200;2023-04-25T15:24:25;10.90;99.90
8008;DHT22;4049;49.468;11.200;2023-04-25T15:26:52;11.00;99.90
8008;DHT22;4049;49.468;11.200;2023-04-25T15:29:19;11.00;99.90
8008;DHT22;4049;49.468;11.200;2023-04-25T15:31:49;11.00;99.90
8008;DHT22;4049;49.468;11.200;2023-04-25T15:34:15;11.00;99.90
8008;DHT22;4049;49.468;11.200;2023-04-25T15:36:44;11.00;99.90
8008;DHT22;4049;49.468;11.200;2023-04-25T15:39:11;11.00;99.90
8008;DHT22;4049;49.468;11.200;2023-04-25T15:41:37;11.00;99.90
8008;DHT22;4049;49.468;11.200;2023-04-25T15:44:04;10.90;99.90
8008;DHT22;4049;49.468;11.200;2023-04-25T15:46:32;10.90;99.90
8008;DHT22;4049;49.468;11.200;2023-04-25T15:48:59;10.80;99.90
8008;DHT22;4049;49.468;11.200;2023-04-25T15:51:27;10.80;99.90
8008;DHT22;4049;49.468;11.200;2023-04-25T15:53:55;10.80;99.90
8008;DHT22;4049;49.468;11.200;2023-04-25T15:56:22;10.70;99.90
8008;DHT22;4049;49.468;11.200;2023-04-25T15:58:49;10.80;99.90